Terminal Aerodrome Forecast
Issued by NWS

Home | Current Version | Previous Version | Graphics & Text | Print | Product List | Glossary On
Versions: 1 2 3 4 5 6 7 8 9 10 11 12 13 14 15 16 17
175
FTUS43 KICT 270853 AAA
TAFRSL
TAF AMD
KRSL 270853Z 2709/2806 33015G22KT P6SM VCSH OVC015
      TEMPO 2709/2712 5SM TSRA SCT015 BKN030CB
     FM271200 31016G24KT 6SM -TSRA BKN017CB
     FM271500 31016G25KT P6SM SCT020 BKN035=

USA.gov is the U.S. government's official web portal to all federal, state and local government web resources and services.